| time (UTC) | temp F | wind direction | speed MPH | gust MPH | rain 1hr in | rain 24hr in | rain mn in | humidity % | barometer mb |
| 20260906143558 | 85 | 110 | 0.0 | 2.0 | 0.00 | 0.00 | 0.00 | 85 | 1013.4 |
| 20260906143055 | 85 | 94 | 1.0 | 2.0 | 0.00 | 0.00 | 0.00 | 85 | 1013.5 |
| 20260906142556 | 85 | 87 | 2.0 | 2.0 | 0.00 | 0.00 | 0.00 | 84 | 1013.5 |
| 20260906142055 | 84 | 237 | 0.0 | 0.0 | 0.00 | 0.00 | 0.00 | 87 | 1013.5 |
| 20260906141557 | 84 | 222 | 1.0 | 2.0 | 0.00 | 0.00 | 0.00 | 88 | 1013.5 |
| 20260906141055 | 83 | 243 | 2.0 | 4.0 | 0.00 | 0.00 | 0.00 | 88 | 1013.6 |
| 20260906140555 | 83 | 63 | 1.0 | 2.0 | 0.00 | 0.00 | 0.00 | 88 | 1013.6 |
| 20260906140055 | 82 | 214 | 2.0 | 3.0 | 0.00 | 0.00 | 0.00 | 91 | 1013.6 |
| 20260906135555 | 82 | 209 | 1.0 | 2.0 | 0.00 | 0.00 | 0.00 | 92 | 1013.6 |
| 20260906135104 | 82 | 233 | 2.0 | 3.0 | 0.00 | 0.00 | 0.00 | 91 | 1013.6 |
| 20260906134555 | 81 | 60 | 0.0 | 1.0 | 0.00 | 0.00 | 0.00 | 92 | 1013.6 |
| 20260906134057 | 80 | 360 | 0.0 | 0.0 | 0.00 | 0.00 | 0.00 | 94 | 1013.6 |
| 20260906133555 | 80 | 134 | 1.0 | 1.0 | 0.00 | 0.00 | 0.00 | 94 | 1013.6 |
| 20260906133055 | 80 | 270 | 0.0 | 0.0 | 0.00 | 0.00 | 0.00 | 95 | 1013.6 |
| 20260906132556 | 79 | 205 | 2.0 | 3.0 | 0.00 | 0.00 | 0.00 | 95 | 1013.6 |
| 20260906132055 | 79 | 204 | 1.0 | 2.0 | 0.00 | 0.00 | 0.00 | 96 | 1013.6 |
| 20260906131556 | 78 | 247 | 2.0 | 3.0 | 0.00 | 0.00 | 0.00 | 96 | 1013.6 |
| 20260906131056 | 78 | 193 | 2.0 | 2.0 | 0.00 | 0.00 | 0.00 | 97 | 1013.6 |
| 20260906130555 | 78 | 204 | 0.0 | 1.0 | 0.00 | 0.00 | 0.00 | 99 | 1013.5 |
| 20260906130055 | 77 | 95 | 0.0 | 0.0 | 0.00 | 0.00 | 0.00 | 100 | 1013.4 |
| 20260906125556 | 76 | 360 | 0.0 | 0.0 | 0.00 | 0.00 | 0.00 | 100 | 1013.3 |
| 20260906125056 | 76 | 145 | 1.0 | 2.0 | 0.00 | 0.00 | 0.00 | 100 | 1013.3 |
| 20260906124555 | 75 | 360 | 0.0 | 0.0 | 0.00 | 0.00 | 0.00 | 100 | 1013.4 |
| 20260906124055 | 75 | 360 | 0.0 | 0.0 | 0.00 | 0.00 | 0.00 | 100 | 1013.4 |
| 20260906123555 | 74 | 136 | 0.0 | 0.0 | 0.00 | 0.00 | 0.00 | 99 | 1013.3 |
| 20260906123055 | 74 | 221 | 0.0 | 1.0 | 0.00 | 0.00 | 0.00 | 99 | 1013.3 |
| 20260906122555 | 74 | 140 | 0.0 | 1.0 | 0.00 | 0.00 | 0.00 | 99 | 1013.3 |
| 20260906122056 | 74 | 59 | 0.0 | 0.0 | 0.00 | 0.00 | 0.00 | 99 | 1013.3 |
| 20260906121557 | 74 | 360 | 0.0 | 0.0 | 0.00 | 0.00 | 0.00 | 99 | 1013.2 |
| 20260906121055 | 74 | 360 | 0.0 | 0.0 | 0.00 | 0.00 | 0.00 | 99 | 1013.2 |
| 20260906120555 | 73 | 360 | 0.0 | 0.0 | 0.00 | 0.00 | 0.00 | 99 | 1013.1 |
| 20260906120057 | 73 | 360 | 0.0 | 0.0 | 0.00 | 0.00 | 0.00 | 99 | 1013.1 |
| 20260906115555 | 73 | 188 | 1.0 | 2.0 | 0.00 | 0.00 | 0.00 | 99 | 1013.2 |
| 20260906115057 | 73 | 360 | 0.0 | 0.0 | 0.00 | 0.00 | 0.00 | 99 | 1013.1 |
| 20260906114555 | 73 | 360 | 0.0 | 0.0 | 0.00 | 0.00 | 0.00 | 99 | 1013.0 |
| 20260906114055 | 73 | 177 | 1.0 | 2.0 | 0.00 | 0.00 | 0.00 | 99 | 1012.9 |
| 20260906113555 | 73 | 360 | 0.0 | 0.0 | 0.00 | 0.00 | 0.00 | 99 | 1012.9 |
| 20260906113056 | 73 | 360 | 0.0 | 0.0 | 0.00 | 0.00 | 0.00 | 99 | 1012.9 |
| 20260906112555 | 73 | 360 | 0.0 | 0.0 | 0.00 | 0.00 | 0.00 | 99 | 1013.0 |
| 20260906112058 | 73 | 360 | 0.0 | 0.0 | 0.00 | 0.00 | 0.00 | 99 | 1012.9 |
| 20260906111555 | 73 | 360 | 0.0 | 0.0 | 0.00 | 0.00 | 0.00 | 99 | 1012.9 |
| 20260906111055 | 73 | 360 | 0.0 | 0.0 | 0.00 | 0.00 | 0.00 | 99 | 1012.9 |
| 20260906110556 | 73 | 360 | 0.0 | 0.0 | 0.00 | 0.00 | 0.00 | 99 | 1012.9 |
| 20260906110055 | 73 | 360 | 0.0 | 0.0 | 0.00 | 0.00 | 0.00 | 99 | 1012.9 |
| 20260906105555 | 73 | 360 | 0.0 | 0.0 | 0.00 | 0.00 | 0.00 | 99 | 1012.8 |
| 20260906105056 | 73 | 360 | 0.0 | 0.0 | 0.00 | 0.00 | 0.00 | 99 | 1012.8 |
| 20260906104556 | 73 | 360 | 0.0 | 0.0 | 0.00 | 0.00 | 0.00 | 99 | 1012.6 |
| 20260906104057 | 73 | 199 | 0.0 | 0.0 | 0.00 | 0.00 | 0.00 | 99 | 1012.5 |
| 20260906103555 | 73 | 360 | 0.0 | 0.0 | 0.00 | 0.00 | 0.00 | 99 | 1012.6 |
| 20260906103055 | 73 | 360 | 0.0 | 0.0 | 0.00 | 0.00 | 0.00 | 99 | 1012.6 |
| 20260906102555 | 73 | 153 | 1.0 | 2.0 | 0.00 | 0.00 | 0.00 | 99 | 1012.5 |
| 20260906102055 | 73 | 360 | 0.0 | 0.0 | 0.00 | 0.00 | 0.00 | 99 | 1012.4 |
| 20260906101555 | 73 | 360 | 0.0 | 0.0 | 0.00 | 0.00 | 0.00 | 99 | 1012.4 |
| 20260906101055 | 73 | 360 | 0.0 | 0.0 | 0.00 | 0.00 | 0.00 | 99 | 1012.4 |
| 20260906100555 | 73 | 360 | 0.0 | 0.0 | 0.00 | 0.00 | 0.00 | 99 | 1012.2 |
| 20260906100055 | 73 | 160 | 1.0 | 2.0 | 0.00 | 0.00 | 0.00 | 99 | 1012.3 |
| 20260906095555 | 73 | 360 | 0.0 | 0.0 | 0.00 | 0.00 | 0.00 | 99 | 1012.3 |
| 20260906095055 | 73 | 360 | 0.0 | 0.0 | 0.00 | 0.00 | 0.00 | 99 | 1012.3 |
| 20260906094555 | 73 | 360 | 0.0 | 0.0 | 0.00 | 0.00 | 0.00 | 99 | 1012.3 |
| 20260906094056 | 73 | 360 | 0.0 | 0.0 | 0.00 | 0.00 | 0.00 | 99 | 1012.2 |
| 20260906093555 | 73 | 149 | 0.0 | 1.0 | 0.00 | 0.00 | 0.00 | 99 | 1012.1 |
| 20260906093056 | 73 | 360 | 0.0 | 0.0 | 0.00 | 0.00 | 0.00 | 99 | 1012.2 |
| 20260906092555 | 73 | 215 | 2.0 | 2.0 | 0.00 | 0.00 | 0.00 | 99 | 1012.1 |
| 20260906092055 | 73 | 360 | 0.0 | 0.0 | 0.00 | 0.00 | 0.00 | 99 | 1012.1 |
| 20260906091555 | 73 | 360 | 0.0 | 0.0 | 0.00 | 0.00 | 0.00 | 99 | 1012.1 |
| 20260906091055 | 73 | 360 | 0.0 | 0.0 | 0.00 | 0.00 | 0.00 | 99 | 1012.0 |
| 20260906090555 | 74 | 360 | 0.0 | 0.0 | 0.00 | 0.00 | 0.00 | 99 | 1012.0 |
| 20260906090056 | 74 | 165 | 1.0 | 2.0 | 0.00 | 0.00 | 0.00 | 99 | 1011.9 |
| 20260906085556 | 73 | 360 | 0.0 | 0.0 | 0.00 | 0.00 | 0.00 | 99 | 1011.9 |
| 20260906085056 | 74 | 360 | 0.0 | 0.0 | 0.00 | 0.00 | 0.00 | 99 | 1011.9 |
| 20260906084555 | 74 | 360 | 0.0 | 0.0 | 0.00 | 0.00 | 0.00 | 99 | 1011.8 |
| 20260906084055 | 74 | 192 | 0.0 | 1.0 | 0.00 | 0.00 | 0.00 | 99 | 1011.8 |
| 20260906083555 | 74 | 360 | 0.0 | 0.0 | 0.00 | 0.00 | 0.00 | 99 | 1011.8 |
| 20260906083055 | 74 | 360 | 0.0 | 0.0 | 0.00 | 0.00 | 0.00 | 99 | 1011.7 |
| 20260906082555 | 74 | 118 | 0.0 | 0.0 | 0.00 | 0.00 | 0.00 | 99 | 1011.7 |
| 20260906082055 | 74 | 360 | 0.0 | 0.0 | 0.00 | 0.00 | 0.00 | 99 | 1011.7 |
| 20260906081556 | 74 | 360 | 0.0 | 0.0 | 0.00 | 0.00 | 0.00 | 99 | 1011.7 |
| 20260906081055 | 74 | 360 | 0.0 | 0.0 | 0.00 | 0.00 | 0.00 | 99 | 1011.7 |
| 20260906080555 | 74 | 360 | 0.0 | 0.0 | 0.00 | 0.00 | 0.00 | 99 | 1011.6 |
| 20260906080055 | 74 | 170 | 0.0 | 2.0 | 0.00 | 0.00 | 0.00 | 99 | 1011.6 |
| 20260906075555 | 74 | 205 | 0.0 | 0.0 | 0.00 | 0.00 | 0.00 | 98 | 1011.7 |
| 20260906075055 | 74 | 360 | 0.0 | 0.0 | 0.00 | 0.00 | 0.00 | 98 | 1011.9 |
| 20260906074556 | 74 | 190 | 0.0 | 1.0 | 0.00 | 0.00 | 0.00 | 98 | 1011.8 |
| 20260906074055 | 74 | 144 | 0.0 | 0.0 | 0.00 | 0.00 | 0.00 | 99 | 1011.8 |
| 20260906073555 | 74 | 153 | 0.0 | 0.0 | 0.00 | 0.00 | 0.00 | 98 | 1011.7 |
| 20260906073055 | 74 | 148 | 2.0 | 3.0 | 0.00 | 0.00 | 0.00 | 98 | 1011.8 |
| 20260906072556 | 74 | 360 | 0.0 | 0.0 | 0.00 | 0.00 | 0.00 | 98 | 1011.9 |
| 20260906072057 | 74 | 132 | 0.0 | 1.0 | 0.00 | 0.00 | 0.00 | 98 | 1011.7 |
| 20260906071555 | 74 | 360 | 0.0 | 0.0 | 0.00 | 0.00 | 0.00 | 98 | 1011.8 |
| 20260906071057 | 74 | 360 | 0.0 | 0.0 | 0.00 | 0.00 | 0.00 | 98 | 1011.9 |
| 20260906070555 | 74 | 360 | 0.0 | 0.0 | 0.00 | 0.00 | 0.00 | 98 | 1012.0 |
| 20260906070055 | 74 | 360 | 0.0 | 0.0 | 0.00 | 0.00 | 0.00 | 98 | 1012.0 |
| 20260906065555 | 74 | 120 | 0.0 | 0.0 | 0.00 | 0.00 | 0.00 | 98 | 1012.0 |
| 20260906065055 | 74 | 167 | 0.0 | 0.0 | 0.00 | 0.00 | 0.00 | 98 | 1012.0 |
| 20260906064555 | 75 | 176 | 2.0 | 2.0 | 0.00 | 0.00 | 0.00 | 98 | 1012.0 |
| 20260906064055 | 75 | 131 | 0.0 | 0.0 | 0.00 | 0.00 | 0.00 | 98 | 1012.0 |
| 20260906063559 | 75 | 72 | 0.0 | 0.0 | 0.00 | 0.00 | 0.00 | 98 | 1012.0 |
| 20260906063055 | 75 | 345 | 0.0 | 0.0 | 0.00 | 0.00 | 0.00 | 98 | 1011.9 |
| 20260906062555 | 75 | 360 | 0.0 | 0.0 | 0.00 | 0.00 | 0.00 | 98 | 1011.9 |
| 20260906062055 | 75 | 148 | 0.0 | 0.0 | 0.00 | 0.00 | 0.00 | 98 | 1012.0 |
| 20260906061555 | 75 | 360 | 0.0 | 0.0 | 0.00 | 0.00 | 0.00 | 98 | 1012.0 |
| 20260906061055 | 75 | 360 | 0.0 | 0.0 | 0.00 | 0.00 | 0.00 | 98 | 1012.1 |
| 20260906060555 | 75 | 360 | 0.0 | 0.0 | 0.00 | 0.00 | 0.00 | 98 | 1012.3 |
| 20260906060055 | 75 | 360 | 0.0 | 0.0 | 0.00 | 0.00 | 0.00 | 98 | 1012.3 |
| 20260906055555 | 75 | 360 | 0.0 | 0.0 | 0.00 | 0.00 | 0.00 | 98 | 1012.3 |
| 20260906055056 | 75 | 147 | 2.0 | 3.0 | 0.00 | 0.00 | 0.00 | 98 | 1012.3 |
| 20260906054555 | 75 | 116 | 0.0 | 0.0 | 0.00 | 0.00 | 0.00 | 98 | 1012.4 |
| 20260906054055 | 75 | 70 | 1.0 | 2.0 | 0.00 | 0.00 | 0.00 | 98 | 1012.5 |
| 20260906053556 | 75 | 82 | 1.0 | 2.0 | 0.00 | 0.00 | 0.00 | 98 | 1012.3 |
| 20260906053056 | 76 | 228 | 1.0 | 2.0 | 0.00 | 0.00 | 0.00 | 98 | 1012.2 |
| 20260906052555 | 76 | 167 | 1.0 | 2.0 | 0.00 | 0.00 | 0.00 | 98 | 1012.3 |
| 20260906052055 | 76 | 360 | 0.0 | 0.0 | 0.00 | 0.00 | 0.00 | 98 | 1012.5 |
| 20260906051555 | 76 | 109 | 0.0 | 0.0 | 0.00 | 0.00 | 0.00 | 98 | 1012.5 |
| 20260906051055 | 76 | 360 | 0.0 | 0.0 | 0.00 | 0.00 | 0.00 | 98 | 1012.4 |
| 20260906050555 | 76 | 360 | 0.0 | 0.0 | 0.00 | 0.00 | 0.00 | 98 | 1012.4 |
| 20260906050056 | 76 | 234 | 0.0 | 0.0 | 0.00 | 0.00 | 0.00 | 98 | 1012.5 |
| 20260906045555 | 76 | 360 | 0.0 | 0.0 | 0.00 | 0.00 | 0.15 | 98 | 1012.5 |
| 20260906045055 | 76 | 360 | 0.0 | 0.0 | 0.00 | 0.00 | 0.15 | 98 | 1012.7 |
| 20260906044555 | 76 | 360 | 0.0 | 0.0 | 0.00 | 0.00 | 0.15 | 98 | 1012.7 |
| 20260906044056 | 76 | 360 | 0.0 | 0.0 | 0.00 | 0.00 | 0.15 | 98 | 1012.6 |
| 20260906043555 | 76 | 360 | 0.0 | 0.0 | 0.00 | 0.00 | 0.15 | 98 | 1012.5 |
| 20260906043055 | 76 | 126 | 0.0 | 1.0 | 0.00 | 0.00 | 0.15 | 98 | 1012.5 |
| 20260906042555 | 76 | 190 | 2.0 | 2.0 | 0.00 | 0.00 | 0.15 | 98 | 1012.5 |
| 20260906042056 | 76 | 178 | 3.0 | 4.0 | 0.00 | 0.00 | 0.15 | 98 | 1012.6 |
| 20260906041555 | 77 | 190 | 1.0 | 2.0 | 0.00 | 0.00 | 0.15 | 98 | 1012.7 |
| 20260906041055 | 77 | 190 | 2.0 | 3.0 | 0.00 | 0.00 | 0.15 | 97 | 1012.7 |
| 20260906040555 | 77 | 360 | 0.0 | 0.0 | 0.00 | 0.00 | 0.15 | 97 | 1012.9 |
| 20260906040056 | 77 | 360 | 0.0 | 0.0 | 0.00 | 0.00 | 0.15 | 97 | 1013.0 |
| 20260906035557 | 77 | 176 | 0.0 | 1.0 | 0.00 | 0.00 | 0.15 | 97 | 1013.0 |
| 20260906035056 | 77 | 360 | 0.0 | 0.0 | 0.00 | 0.00 | 0.15 | 97 | 1013.1 |
| 20260906034555 | 77 | 211 | 1.0 | 2.0 | 0.00 | 0.00 | 0.15 | 97 | 1013.1 |
| 20260906034055 | 77 | 188 | 2.0 | 3.0 | 0.00 | 0.00 | 0.15 | 97 | 1013.1 |
| 20260906033556 | 77 | 174 | 1.0 | 2.0 | 0.00 | 0.00 | 0.15 | 97 | 1013.2 |
| 20260906033056 | 77 | 168 | 2.0 | 3.0 | 0.00 | 0.00 | 0.15 | 97 | 1013.2 |
| 20260906032555 | 77 | 150 | 1.0 | 2.0 | 0.00 | 0.00 | 0.15 | 97 | 1013.3 |
| 20260906032055 | 77 | 175 | 2.0 | 3.0 | 0.00 | 0.00 | 0.15 | 97 | 1013.3 |
| 20260906031555 | 77 | 360 | 0.0 | 0.0 | 0.00 | 0.00 | 0.15 | 97 | 1013.3 |
| 20260906031057 | 77 | 135 | 0.0 | 1.0 | 0.00 | 0.00 | 0.15 | 97 | 1013.4 |
| 20260906030556 | 77 | 360 | 0.0 | 0.0 | 0.00 | 0.00 | 0.15 | 97 | 1013.5 |
| 20260906030055 | 77 | 360 | 0.0 | 0.0 | 0.00 | 0.00 | 0.15 | 97 | 1013.6 |
| 20260906025555 | 77 | 64 | 0.0 | 1.0 | 0.00 | 0.00 | 0.15 | 97 | 1013.6 |
| 20260906025055 | 77 | 360 | 0.0 | 0.0 | 0.00 | 0.00 | 0.15 | 96 | 1013.6 |
| 20260906024556 | 77 | 360 | 0.0 | 0.0 | 0.00 | 0.00 | 0.15 | 96 | 1013.4 |
| 20260906024055 | 78 | 176 | 0.0 | 1.0 | 0.00 | 0.00 | 0.15 | 96 | 1013.3 |
| 20260906023555 | 78 | 360 | 0.0 | 0.0 | 0.00 | 0.00 | 0.15 | 96 | 1013.3 |
| 20260906023056 | 78 | 360 | 0.0 | 0.0 | 0.00 | 0.00 | 0.15 | 96 | 1013.3 |
| 20260906022555 | 78 | 360 | 0.0 | 0.0 | 0.00 | 0.00 | 0.15 | 96 | 1013.2 |
| 20260906022055 | 78 | 194 | 0.0 | 1.0 | 0.00 | 0.00 | 0.15 | 96 | 1013.1 |
| 20260906021555 | 78 | 360 | 0.0 | 0.0 | 0.00 | 0.00 | 0.15 | 96 | 1013.0 |
| 20260906021055 | 78 | 360 | 0.0 | 0.0 | 0.00 | 0.00 | 0.15 | 96 | 1012.9 |
| 20260906020555 | 78 | 360 | 0.0 | 0.0 | 0.00 | 0.00 | 0.15 | 96 | 1012.8 |
| 20260906020056 | 78 | 360 | 0.0 | 0.0 | 0.00 | 0.00 | 0.15 | 96 | 1012.6 |
| 20260906015555 | 78 | 204 | 0.0 | 2.0 | 0.00 | 0.00 | 0.15 | 96 | 1012.5 |
| 20260906015055 | 78 | 204 | 1.0 | 2.0 | 0.00 | 0.00 | 0.15 | 96 | 1012.4 |
| 20260906014555 | 78 | 90 | 0.0 | 0.0 | 0.00 | 0.00 | 0.15 | 96 | 1012.4 |
| 20260906014056 | 78 | 158 | 1.0 | 2.0 | 0.00 | 0.00 | 0.15 | 96 | 1012.2 |
| 20260906013555 | 78 | 180 | 1.0 | 3.0 | 0.00 | 0.00 | 0.15 | 95 | 1012.0 |
| 20260906013055 | 78 | 148 | 0.0 | 1.0 | 0.00 | 0.00 | 0.15 | 95 | 1011.9 |
| 20260906012555 | 78 | 126 | 0.0 | 2.0 | 0.00 | 0.00 | 0.15 | 95 | 1012.0 |
| 20260906012057 | 78 | 190 | 1.0 | 2.0 | 0.00 | 0.00 | 0.15 | 95 | 1011.9 |
| 20260906011555 | 78 | 186 | 0.0 | 2.0 | 0.00 | 0.00 | 0.15 | 95 | 1011.8 |
| 20260906011055 | 78 | 212 | 2.0 | 3.0 | 0.00 | 0.00 | 0.15 | 95 | 1011.6 |
| 20260906010555 | 78 | 220 | 2.0 | 3.0 | 0.00 | 0.00 | 0.15 | 95 | 1011.6 |
| 20260906010055 | 78 | 219 | 2.0 | 3.0 | 0.00 | 0.00 | 0.15 | 95 | 1011.6 |
| 20260906005556 | 79 | 206 | 2.0 | 3.0 | 0.00 | 0.00 | 0.15 | 94 | 1011.6 |
| 20260906005055 | 79 | 198 | 2.0 | 3.0 | 0.00 | 0.00 | 0.15 | 94 | 1011.6 |
| 20260906004556 | 79 | 199 | 1.0 | 2.0 | 0.00 | 0.00 | 0.15 | 93 | 1011.6 |
| 20260906004055 | 80 | 186 | 1.0 | 3.0 | 0.00 | 0.00 | 0.15 | 93 | 1011.7 |
| 20260906003555 | 80 | 164 | 0.0 | 2.0 | 0.00 | 0.00 | 0.15 | 92 | 1011.7 |
| 20260906003055 | 80 | 360 | 0.0 | 0.0 | 0.00 | 0.00 | 0.15 | 92 | 1011.8 |
| 20260906002556 | 80 | 360 | 0.0 | 0.0 | 0.00 | 0.00 | 0.15 | 91 | 1011.8 |
| 20260906002056 | 81 | 79 | 0.0 | 1.0 | 0.00 | 0.00 | 0.15 | 91 | 1011.7 |
| 20260906001555 | 81 | 360 | 0.0 | 0.0 | 0.00 | 0.00 | 0.15 | 90 | 1011.7 |
| 20260906001055 | 82 | 360 | 0.0 | 0.0 | 0.00 | 0.00 | 0.15 | 90 | 1011.7 |
| 20260906000555 | 82 | 360 | 0.0 | 0.0 | 0.00 | 0.00 | 0.15 | 89 | 1011.7 |
| 20260906000055 | 82 | 130 | 0.0 | 2.0 | 0.00 | 0.00 | 0.15 | 89 | 1011.7 |
| 20260905235556 | 83 | 360 | 0.0 | 0.0 | 0.00 | 0.00 | 0.15 | 88 | 1011.7 |
| 20260905235055 | 83 | 193 | 0.0 | 1.0 | 0.00 | 0.00 | 0.15 | 86 | 1011.7 |
| 20260905234555 | 83 | 238 | 0.0 | 1.0 | 0.00 | 0.00 | 0.15 | 86 | 1011.6 |
| 20260905234055 | 84 | 200 | 2.0 | 4.0 | 0.00 | 0.00 | 0.15 | 85 | 1011.5 |
| 20260905233555 | 84 | 206 | 2.0 | 5.0 | 0.00 | 0.00 | 0.15 | 84 | 1011.5 |
| 20260905233055 | 85 | 216 | 3.0 | 4.0 | 0.00 | 0.00 | 0.15 | 82 | 1011.6 |
| 20260905232555 | 85 | 212 | 4.0 | 6.0 | 0.00 | 0.00 | 0.15 | 81 | 1011.6 |
| 20260905232055 | 86 | 211 | 4.0 | 4.0 | 0.00 | 0.00 | 0.15 | 80 | 1011.6 |
| 20260905231555 | 86 | 226 | 4.0 | 6.0 | 0.00 | 0.00 | 0.15 | 81 | 1011.7 |
| 20260905231056 | 86 | 199 | 3.0 | 4.0 | 0.00 | 0.00 | 0.15 | 81 | 1011.8 |
| 20260905230555 | 86 | 203 | 4.0 | 5.0 | 0.00 | 0.00 | 0.15 | 80 | 1011.9 |
| 20260905230055 | 86 | 217 | 3.0 | 4.0 | 0.00 | 0.00 | 0.15 | 81 | 1011.9 |
| 20260905225555 | 87 | 228 | 4.0 | 6.0 | 0.00 | 0.00 | 0.15 | 81 | 1011.8 |
| 20260905225055 | 87 | 231 | 3.0 | 5.0 | 0.00 | 0.00 | 0.15 | 80 | 1011.7 |
| 20260905224555 | 88 | 203 | 3.0 | 4.0 | 0.00 | 0.00 | 0.15 | 79 | 1011.7 |
| 20260905224055 | 89 | 220 | 3.0 | 4.0 | 0.00 | 0.00 | 0.15 | 78 | 1011.8 |
| 20260905223556 | 90 | 218 | 3.0 | 4.0 | 0.00 | 0.00 | 0.15 | 75 | 1011.7 |
| 20260905223055 | 91 | 231 | 3.0 | 4.0 | 0.00 | 0.00 | 0.15 | 71 | 1011.7 |
| 20260905222556 | 91 | 7 | 0.0 | 1.0 | 0.00 | 0.00 | 0.15 | 69 | 1011.8 |
| 20260905222055 | 91 | 216 | 2.0 | 3.0 | 0.00 | 0.00 | 0.15 | 71 | 1011.8 |
| 20260905221556 | 91 | 218 | 2.0 | 4.0 | 0.00 | 0.00 | 0.15 | 71 | 1011.8 |
| 20260905221055 | 91 | 246 | 0.0 | 1.0 | 0.00 | 0.00 | 0.15 | 68 | 1011.8 |
| 20260905220556 | 91 | 236 | 2.0 | 4.0 | 0.00 | 0.00 | 0.15 | 69 | 1011.9 |
| 20260905220055 | 90 | 232 | 1.0 | 2.0 | 0.00 | 0.00 | 0.15 | 70 | 1012.0 |
| 20260905215556 | 90 | 166 | 1.0 | 6.0 | 0.00 | 0.00 | 0.15 | 72 | 1012.0 |
| 20260905215055 | 90 | 220 | 3.0 | 4.0 | 0.00 | 0.00 | 0.15 | 71 | 1012.0 |
| 20260905214555 | 90 | 144 | 1.0 | 3.0 | 0.00 | 0.00 | 0.15 | 69 | 1012.0 |
| 20260905214058 | 90 | 174 | 3.0 | 5.0 | 0.00 | 0.00 | 0.15 | 71 | 1011.9 |
| 20260905213555 | 91 | 205 | 1.0 | 2.0 | 0.00 | 0.00 | 0.15 | 70 | 1011.9 |
| 20260905213055 | 91 | 220 | 2.0 | 3.0 | 0.00 | 0.00 | 0.15 | 71 | 1011.9 |
| 20260905212556 | 91 | 231 | 1.0 | 3.0 | 0.00 | 0.00 | 0.15 | 69 | 1011.9 |
| 20260905212055 | 90 | 113 | 0.0 | 2.0 | 0.00 | 0.00 | 0.15 | 72 | 1011.8 |
| 20260905211555 | 89 | 174 | 3.0 | 4.0 | 0.00 | 0.00 | 0.15 | 71 | 1011.9 |
| 20260905211055 | 89 | 121 | 1.0 | 2.0 | 0.00 | 0.00 | 0.15 | 71 | 1011.8 |
| 20260905210556 | 89 | 216 | 1.0 | 2.0 | 0.00 | 0.00 | 0.15 | 75 | 1011.9 |
| 20260905210055 | 88 | 248 | 2.0 | 3.0 | 0.00 | 0.00 | 0.15 | 77 | 1012.0 |
| 20260905205555 | 88 | 236 | 1.0 | 3.0 | 0.00 | 0.00 | 0.15 | 77 | 1012.0 |
| 20260905205055 | 88 | 230 | 1.0 | 2.0 | 0.00 | 0.00 | 0.15 | 75 | 1012.1 |
| 20260905204555 | 88 | 69 | 0.0 | 1.0 | 0.00 | 0.00 | 0.15 | 76 | 1012.1 |
| 20260905204055 | 87 | 40 | 1.0 | 2.0 | 0.00 | 0.00 | 0.15 | 79 | 1012.1 |
| 20260905203555 | 87 | 68 | 2.0 | 3.0 | 0.00 | 0.00 | 0.15 | 79 | 1012.3 |
| 20260905203055 | 86 | 51 | 2.0 | 3.0 | 0.00 | 0.00 | 0.15 | 80 | 1012.4 |
| 20260905202555 | 86 | 91 | 0.0 | 2.0 | 0.00 | 0.00 | 0.15 | 82 | 1012.6 |
| 20260905202059 | 86 | 290 | 1.0 | 2.0 | 0.00 | 0.00 | 0.15 | 84 | 1012.6 |
| 20260905201556 | 86 | 124 | 1.0 | 3.0 | 0.00 | 0.00 | 0.15 | 84 | 1012.6 |
| 20260905201056 | 86 | 79 | 1.0 | 2.0 | 0.00 | 0.00 | 0.15 | 83 | 1012.6 |
| 20260905200556 | 85 | 229 | 1.0 | 3.0 | 0.00 | 0.00 | 0.15 | 86 | 1012.6 |
| 20260905200056 | 84 | 360 | 0.0 | 0.0 | 0.00 | 0.00 | 0.09 | 87 | 1012.6 |
| 20260905195555 | 83 | 208 | 0.0 | 1.0 | 0.00 | 0.00 | 0.09 | 89 | 1012.8 |
| 20260905195055 | 83 | 147 | 3.0 | 5.0 | 0.00 | 0.00 | 0.09 | 90 | 1013.0 |
| 20260905194556 | 83 | 137 | 0.0 | 2.0 | 0.00 | 0.00 | 0.09 | 90 | 1013.1 |
| 20260905194056 | 83 | 141 | 1.0 | 2.0 | 0.00 | 0.00 | 0.09 | 91 | 1013.2 |
| 20260905193555 | 83 | 26 | 1.0 | 3.0 | 0.00 | 0.00 | 0.09 | 91 | 1013.4 |
| 20260905193055 | 82 | 125 | 1.0 | 3.0 | 0.00 | 0.00 | 0.09 | 91 | 1013.6 |
| 20260905192555 | 82 | 94 | 1.0 | 2.0 | 0.00 | 0.00 | 0.09 | 92 | 1013.7 |
| 20260905192055 | 82 | 88 | 1.0 | 2.0 | 0.00 | 0.00 | 0.14 | 92 | 1013.7 |
| 20260905191555 | 82 | 358 | 3.0 | 6.0 | 0.00 | 0.00 | 0.14 | 90 | 1013.7 |
| 20260905191055 | 82 | 276 | 0.0 | 1.0 | 0.00 | 0.00 | 0.14 | 92 | 1013.7 |
| 20260905190556 | 81 | 27 | 1.0 | 2.0 | 0.00 | 0.00 | 0.14 | 93 | 1013.9 |
| 20260905190056 | 81 | 8 | 2.0 | 4.0 | 0.00 | 0.00 | 0.14 | 93 | 1013.9 |
| 20260905185555 | 80 | 149 | 0.0 | 1.0 | 0.00 | 0.00 | 0.14 | 94 | 1014.0 |
| 20260905185055 | 80 | 36 | 0.0 | 2.0 | 0.00 | 0.00 | 0.13 | 96 | 1014.2 |
| 20260905184557 | 79 | 6 | 2.0 | 4.0 | 0.00 | 0.00 | 0.13 | 96 | 1014.3 |
| 20260905184055 | 79 | 41 | 0.0 | 2.0 | 0.00 | 0.00 | 0.13 | 96 | 1014.3 |
| 20260905183556 | 79 | 16 | 2.0 | 4.0 | 0.00 | 0.00 | 0.10 | 97 | 1014.2 |
| 20260905183056 | 79 | 17 | 3.0 | 5.0 | 0.00 | 0.00 | 0.10 | 96 | 1014.3 |
| 20260905182555 | 79 | 33 | 1.0 | 2.0 | 0.01 | 0.00 | 0.10 | 95 | 1014.6 |
| 20260905182055 | 79 | 18 | 2.0 | 3.0 | 0.00 | 0.00 | 0.06 | 94 | 1014.6 |
| 20260905181555 | 80 | 1 | 2.0 | 4.0 | 0.00 | 0.00 | 0.06 | 94 | 1014.6 |
| 20260905181056 | 80 | 241 | 3.0 | 6.0 | 0.04 | 0.00 | 0.06 | 93 | 1014.7 |
| 20260905180555 | 81 | 175 | 2.0 | 2.0 | 0.00 | 0.00 | 0.05 | 94 | 1014.7 |
| 20260905180055 | 81 | 258 | 5.0 | 8.0 | 0.00 | 0.00 | 0.05 | 94 | 1014.8 |
| 20260905175555 | 81 | 264 | 3.0 | 4.0 | 0.00 | 0.00 | 0.05 | 95 | 1014.8 |
| 20260905175056 | 81 | 253 | 3.0 | 4.0 | 0.00 | 0.00 | 0.04 | 95 | 1014.7 |
| 20260905174555 | 81 | 234 | 3.0 | 4.0 | 0.00 | 0.00 | 0.04 | 96 | 1014.7 |
| 20260905174055 | 81 | 207 | 3.0 | 4.0 | 0.00 | 0.00 | 0.01 | 95 | 1014.7 |
| 20260905173555 | 81 | 241 | 2.0 | 4.0 | 0.03 | 0.00 | 0.01 | 95 | 1014.7 |
| 20260905173057 | 81 | 206 | 3.0 | 4.0 | 0.06 | 0.00 | 0.01 | 94 | 1014.7 |
| 20260905172557 | 82 | 190 | 3.0 | 4.0 | 0.06 | 0.00 | 0.00 | 92 | 1014.8 |
| 20260905172056 | 82 | 225 | 3.0 | 4.0 | 0.00 | 0.00 | 0.00 | 92 | 1014.9 |
| 20260905171556 | 82 | 226 | 2.0 | 3.0 | 0.00 | 0.00 | 0.00 | 93 | 1014.9 |
| 20260905171055 | 82 | 253 | 2.0 | 3.0 | 0.00 | 0.00 | 0.00 | 93 | 1014.9 |
| 20260905170558 | 83 | 248 | 3.0 | 5.0 | 0.00 | 0.00 | 0.00 | 92 | 1015.0 |
| 20260905170056 | 85 | 246 | 2.0 | 4.0 | 0.00 | 0.00 | 0.00 | 92 | 1015.0 |
| 20260905165556 | 87 | 235 | 1.0 | 3.0 | 0.00 | 0.00 | 0.00 | 85 | 1015.0 |
| 20260905165056 | 88 | 276 | 4.0 | 6.0 | 0.00 | 0.00 | 0.00 | 81 | 1014.9 |
| 20260905164555 | 87 | 36 | 2.0 | 4.0 | 0.00 | 0.00 | 0.00 | 79 | 1015.0 |
| 20260905164055 | 87 | 31 | 2.0 | 4.0 | 0.00 | 0.00 | 0.00 | 81 | 1015.0 |
| 20260905163555 | 87 | 24 | 2.0 | 4.0 | 0.00 | 0.00 | 0.00 | 84 | 1015.1 |
| 20260905163057 | 86 | 14 | 2.0 | 5.0 | 0.00 | 0.00 | 0.00 | 82 | 1015.1 |
| 20260905162555 | 86 | 24 | 2.0 | 4.0 | 0.00 | 0.00 | 0.00 | 84 | 1015.1 |
| 20260905162056 | 86 | 62 | 1.0 | 3.0 | 0.00 | 0.00 | 0.00 | 82 | 1015.2 |
| 20260905161556 | 86 | 11 | 2.0 | 3.0 | 0.00 | 0.00 | 0.00 | 82 | 1015.3 |
| 20260905161055 | 85 | 68 | 1.0 | 2.0 | 0.00 | 0.00 | 0.00 | 82 | 1015.3 |
| 20260905160555 | 84 | 60 | 2.0 | 4.0 | 0.00 | 0.00 | 0.00 | 83 | 1015.3 |
| 20260905160055 | 84 | 52 | 1.0 | 2.0 | 0.00 | 0.00 | 0.00 | 87 | 1015.3 |
| 20260905155556 | 83 | 41 | 0.0 | 1.0 | 0.00 | 0.00 | 0.00 | 88 | 1015.3 |
| 20260905155055 | 83 | 72 | 0.0 | 0.0 | 0.00 | 0.00 | 0.00 | 89 | 1015.3 |
| 20260905154555 | 83 | 19 | 1.0 | 3.0 | 0.00 | 0.00 | 0.00 | 89 | 1015.3 |
| 20260905154056 | 84 | 1 | 2.0 | 3.0 | 0.00 | 0.00 | 0.00 | 89 | 1015.3 |
| 20260905153559 | 84 | 13 | 3.0 | 4.0 | 0.00 | 0.00 | 0.00 | 87 | 1015.3 |
| 20260905153055 | 85 | 49 | 0.0 | 1.0 | 0.00 | 0.00 | 0.00 | 87 | 1015.2 |
| 20260905152555 | 85 | 24 | 0.0 | 1.0 | 0.00 | 0.00 | 0.00 | 86 | 1015.2 |
| 20260905152055 | 85 | 2 | 0.0 | 2.0 | 0.00 | 0.00 | 0.00 | 85 | 1015.2 |
| 20260905151555 | 86 | 298 | 1.0 | 2.0 | 0.00 | 0.00 | 0.00 | 85 | 1015.2 |
| 20260905151056 | 85 | 259 | 2.0 | 3.0 | 0.00 | 0.00 | 0.00 | 83 | 1015.1 |
| 20260905150556 | 85 | 275 | 0.0 | 2.0 | 0.00 | 0.00 | 0.00 | 87 | 1015.2 |
| 20260905150056 | 84 | 88 | 2.0 | 3.0 | 0.00 | 0.00 | 0.00 | 88 | 1015.2 |
| 20260905145555 | 84 | 66 | 1.0 | 4.0 | 0.00 | 0.00 | 0.00 | 88 | 1015.2 |
| 20260905145057 | 83 | 8 | 1.0 | 3.0 | 0.00 | 0.00 | 0.00 | 88 | 1015.3 |
| 20260905144555 | 83 | 360 | 0.0 | 0.0 | 0.00 | 0.00 | 0.00 | 89 | 1015.3 |
| 20260905144055 | 82 | 66 | 0.0 | 0.0 | 0.00 | 0.00 | 0.00 | 91 | 1015.2 |